sensor_id;sensor_type;location;lat;lon;timestamp;P1;durP1;ratioP1;P2;durP2;ratioP2
17151;SDS011;8691;50.828;4.700;2022-07-29T00:00:28;5.40;;;1.40;;
17151;SDS011;8691;50.828;4.700;2022-07-29T00:02:56;6.40;;;1.53;;
17151;SDS011;8691;50.828;4.700;2022-07-29T00:05:22;4.43;;;1.50;;
17151;SDS011;8691;50.828;4.700;2022-07-29T00:07:50;4.00;;;1.50;;
17151;SDS011;8691;50.828;4.700;2022-07-29T00:10:16;5.50;;;1.50;;
17151;SDS011;8691;50.828;4.700;2022-07-29T00:12:43;1.70;;;1.20;;
17151;SDS011;8691;50.828;4.700;2022-07-29T00:15:10;4.13;;;1.33;;
17151;SDS011;8691;50.828;4.700;2022-07-29T00:17:36;3.67;;;1.50;;
17151;SDS011;8691;50.828;4.700;2022-07-29T00:20:04;2.77;;;1.47;;
17151;SDS011;8691;50.828;4.700;2022-07-29T00:22:30;3.53;;;1.50;;
17151;SDS011;8691;50.828;4.700;2022-07-29T00:24:57;1.97;;;1.40;;
17151;SDS011;8691;50.828;4.700;2022-07-29T00:27:24;1.40;;;1.23;;
17151;SDS011;8691;50.828;4.700;2022-07-29T00:29:50;3.87;;;1.43;;
17151;SDS011;8691;50.828;4.700;2022-07-29T00:32:18;2.57;;;1.43;;
17151;SDS011;8691;50.828;4.700;2022-07-29T00:34:44;3.53;;;1.30;;
17151;SDS011;8691;50.828;4.700;2022-07-29T00:37:30;3.00;;;1.57;;
17151;SDS011;8691;50.828;4.700;2022-07-29T00:39:57;2.33;;;1.37;;
17151;SDS011;8691;50.828;4.700;2022-07-29T00:42:24;5.73;;;1.63;;
17151;SDS011;8691;50.828;4.700;2022-07-29T00:44:51;3.23;;;1.50;;
17151;SDS011;8691;50.828;4.700;2022-07-29T00:47:18;2.50;;;1.30;;
17151;SDS011;8691;50.828;4.700;2022-07-29T00:49:45;3.43;;;1.37;;
17151;SDS011;8691;50.828;4.700;2022-07-29T00:52:12;2.30;;;1.20;;
17151;SDS011;8691;50.828;4.700;2022-07-29T00:54:39;2.17;;;1.60;;
17151;SDS011;8691;50.828;4.700;2022-07-29T00:57:06;3.47;;;1.57;;
17151;SDS011;8691;50.828;4.700;2022-07-29T00:59:33;2.47;;;1.40;;
17151;SDS011;8691;50.828;4.700;2022-07-29T01:02:00;4.60;;;1.50;;
17151;SDS011;8691;50.828;4.700;2022-07-29T01:04:27;2.10;;;1.50;;
17151;SDS011;8691;50.828;4.700;2022-07-29T01:06:54;3.60;;;1.70;;
17151;SDS011;8691;50.828;4.700;2022-07-29T01:09:21;3.50;;;1.57;;
17151;SDS011;8691;50.828;4.700;2022-07-29T01:11:47;3.37;;;1.50;;
17151;SDS011;8691;50.828;4.700;2022-07-29T01:14:15;3.40;;;1.60;;
17151;SDS011;8691;50.828;4.700;2022-07-29T01:16:51;5.47;;;1.67;;
17151;SDS011;8691;50.828;4.700;2022-07-29T01:22:14;3.97;;;1.87;;
17151;SDS011;8691;50.828;4.700;2022-07-29T01:30:30;3.53;;;1.60;;
17151;SDS011;8691;50.828;4.700;2022-07-29T01:32:58;3.87;;;1.60;;
17151;SDS011;8691;50.828;4.700;2022-07-29T01:35:24;6.83;;;2.27;;
17151;SDS011;8691;50.828;4.700;2022-07-29T01:37:50;7.27;;;1.93;;
17151;SDS011;8691;50.828;4.700;2022-07-29T01:40:20;4.40;;;1.70;;
17151;SDS011;8691;50.828;4.700;2022-07-29T01:42:48;7.07;;;1.97;;
17151;SDS011;8691;50.828;4.700;2022-07-29T01:45:15;2.37;;;1.50;;
17151;SDS011;8691;50.828;4.700;2022-07-29T01:47:43;4.13;;;1.90;;
17151;SDS011;8691;50.828;4.700;2022-07-29T01:50:10;4.37;;;1.93;;
17151;SDS011;8691;50.828;4.700;2022-07-29T01:52:39;3.47;;;1.80;;
17151;SDS011;8691;50.828;4.700;2022-07-29T01:55:10;4.67;;;1.90;;
17151;SDS011;8691;50.828;4.700;2022-07-29T01:57:34;6.07;;;2.00;;
17151;SDS011;8691;50.828;4.700;2022-07-29T02:00:01;3.10;;;1.63;;
17151;SDS011;8691;50.828;4.700;2022-07-29T02:02:28;3.93;;;1.87;;
17151;SDS011;8691;50.828;4.700;2022-07-29T02:04:55;4.67;;;2.03;;
17151;SDS011;8691;50.828;4.700;2022-07-29T02:07:22;3.30;;;1.70;;
17151;SDS011;8691;50.828;4.700;2022-07-29T02:09:49;6.57;;;1.90;;
17151;SDS011;8691;50.828;4.700;2022-07-29T02:12:16;6.57;;;1.90;;
17151;SDS011;8691;50.828;4.700;2022-07-29T02:14:47;3.23;;;1.47;;
17151;SDS011;8691;50.828;4.700;2022-07-29T02:17:12;2.67;;;1.60;;
17151;SDS011;8691;50.828;4.700;2022-07-29T02:19:38;4.80;;;2.10;;
17151;SDS011;8691;50.828;4.700;2022-07-29T02:22:05;3.57;;;1.90;;
17151;SDS011;8691;50.828;4.700;2022-07-29T02:24:32;3.10;;;1.83;;
17151;SDS011;8691;50.828;4.700;2022-07-29T02:26:59;5.85;;;1.80;;
17151;SDS011;8691;50.828;4.700;2022-07-29T02:29:26;4.57;;;2.10;;
17151;SDS011;8691;50.828;4.700;2022-07-29T02:31:52;6.60;;;1.90;;
17151;SDS011;8691;50.828;4.700;2022-07-29T02:34:20;3.30;;;1.83;;
17151;SDS011;8691;50.828;4.700;2022-07-29T02:36:47;3.47;;;1.87;;
17151;SDS011;8691;50.828;4.700;2022-07-29T02:39:14;1.80;;;1.60;;
17151;SDS011;8691;50.828;4.700;2022-07-29T02:44:11;4.57;;;2.17;;
17151;SDS011;8691;50.828;4.700;2022-07-29T02:46:37;3.90;;;1.80;;
17151;SDS011;8691;50.828;4.700;2022-07-29T02:51:43;3.23;;;1.80;;
17151;SDS011;8691;50.828;4.700;2022-07-29T02:54:09;2.00;;;1.80;;
17151;SDS011;8691;50.828;4.700;2022-07-29T02:56:37;3.20;;;2.00;;
17151;SDS011;8691;50.828;4.700;2022-07-29T02:59:08;3.93;;;1.67;;
17151;SDS011;8691;50.828;4.700;2022-07-29T03:01:30;4.00;;;2.07;;
17151;SDS011;8691;50.828;4.700;2022-07-29T03:03:57;3.90;;;1.87;;
17151;SDS011;8691;50.828;4.700;2022-07-29T03:06:24;3.07;;;1.70;;
17151;SDS011;8691;50.828;4.700;2022-07-29T03:08:51;4.17;;;2.20;;
17151;SDS011;8691;50.828;4.700;2022-07-29T03:11:18;3.07;;;1.80;;
17151;SDS011;8691;50.828;4.700;2022-07-29T03:13:45;4.57;;;2.00;;
17151;SDS011;8691;50.828;4.700;2022-07-29T03:16:12;2.43;;;1.60;;
17151;SDS011;8691;50.828;4.700;2022-07-29T03:18:39;5.27;;;2.40;;
17151;SDS011;8691;50.828;4.700;2022-07-29T03:21:06;3.53;;;2.13;;
17151;SDS011;8691;50.828;4.700;2022-07-29T03:23:33;4.37;;;2.37;;
17151;SDS011;8691;50.828;4.700;2022-07-29T03:26:00;3.63;;;2.10;;
17151;SDS011;8691;50.828;4.700;2022-07-29T03:28:27;2.87;;;2.20;;
17151;SDS011;8691;50.828;4.700;2022-07-29T03:30:54;3.27;;;2.30;;
17151;SDS011;8691;50.828;4.700;2022-07-29T03:33:21;3.87;;;2.40;;
17151;SDS011;8691;50.828;4.700;2022-07-29T03:35:48;2.30;;;1.90;;
17151;SDS011;8691;50.828;4.700;2022-07-29T03:38:15;4.23;;;2.30;;
17151;SDS011;8691;50.828;4.700;2022-07-29T03:43:15;4.90;;;2.40;;
17151;SDS011;8691;50.828;4.700;2022-07-29T03:45:42;5.37;;;2.77;;
17151;SDS011;8691;50.828;4.700;2022-07-29T03:48:08;6.47;;;2.57;;
17151;SDS011;8691;50.828;4.700;2022-07-29T03:50:34;5.27;;;2.77;;
17151;SDS011;8691;50.828;4.700;2022-07-29T03:53:01;3.70;;;2.30;;
17151;SDS011;8691;50.828;4.700;2022-07-29T03:55:28;3.83;;;2.40;;
17151;SDS011;8691;50.828;4.700;2022-07-29T03:57:55;3.87;;;2.27;;
17151;SDS011;8691;50.828;4.700;2022-07-29T04:00:22;3.13;;;2.10;;
17151;SDS011;8691;50.828;4.700;2022-07-29T04:02:48;3.63;;;2.50;;
17151;SDS011;8691;50.828;4.700;2022-07-29T04:05:15;4.00;;;2.43;;
17151;SDS011;8691;50.828;4.700;2022-07-29T04:07:45;4.07;;;2.47;;
17151;SDS011;8691;50.828;4.700;2022-07-29T04:10:11;4.40;;;2.30;;
17151;SDS011;8691;50.828;4.700;2022-07-29T04:12:39;4.70;;;2.40;;
17151;SDS011;8691;50.828;4.700;2022-07-29T04:15:06;4.77;;;2.77;;
17151;SDS011;8691;50.828;4.700;2022-07-29T04:17:32;2.80;;;2.47;;
17151;SDS011;8691;50.828;4.700;2022-07-29T04:19:59;4.17;;;2.20;;
17151;SDS011;8691;50.828;4.700;2022-07-29T04:22:25;3.30;;;3.00;;
17151;SDS011;8691;50.828;4.700;2022-07-29T04:24:52;2.60;;;2.40;;
17151;SDS011;8691;50.828;4.700;2022-07-29T04:27:19;3.40;;;2.30;;
17151;SDS011;8691;50.828;4.700;2022-07-29T04:29:45;4.23;;;2.30;;
17151;SDS011;8691;50.828;4.700;2022-07-29T04:32:12;3.37;;;2.40;;
17151;SDS011;8691;50.828;4.700;2022-07-29T04:34:39;3.53;;;2.60;;
17151;SDS011;8691;50.828;4.700;2022-07-29T04:37:06;5.47;;;2.80;;
17151;SDS011;8691;50.828;4.700;2022-07-29T04:39:33;2.37;;;2.00;;
17151;SDS011;8691;50.828;4.700;2022-07-29T04:41:59;2.53;;;2.10;;
17151;SDS011;8691;50.828;4.700;2022-07-29T04:44:27;4.77;;;2.33;;
17151;SDS011;8691;50.828;4.700;2022-07-29T04:46:53;5.33;;;2.33;;
17151;SDS011;8691;50.828;4.700;2022-07-29T04:49:21;4.33;;;2.33;;
17151;SDS011;8691;50.828;4.700;2022-07-29T04:51:47;4.47;;;2.40;;
17151;SDS011;8691;50.828;4.700;2022-07-29T04:54:15;6.33;;;2.70;;
17151;SDS011;8691;50.828;4.700;2022-07-29T04:56:41;5.30;;;2.80;;
17151;SDS011;8691;50.828;4.700;2022-07-29T04:59:09;2.80;;;2.30;;
17151;SDS011;8691;50.828;4.700;2022-07-29T05:01:35;3.50;;;2.00;;
17151;SDS011;8691;50.828;4.700;2022-07-29T05:04:02;2.20;;;2.00;;
17151;SDS011;8691;50.828;4.700;2022-07-29T05:06:28;3.27;;;2.00;;
17151;SDS011;8691;50.828;4.700;2022-07-29T05:08:55;5.27;;;2.43;;
17151;SDS011;8691;50.828;4.700;2022-07-29T05:11:22;2.70;;;2.30;;
17151;SDS011;8691;50.828;4.700;2022-07-29T05:13:49;5.90;;;2.37;;
17151;SDS011;8691;50.828;4.700;2022-07-29T05:16:16;4.50;;;2.50;;
17151;SDS011;8691;50.828;4.700;2022-07-29T05:18:43;6.17;;;2.27;;
17151;SDS011;8691;50.828;4.700;2022-07-29T05:21:10;3.30;;;2.10;;
17151;SDS011;8691;50.828;4.700;2022-07-29T05:23:37;3.70;;;1.90;;
17151;SDS011;8691;50.828;4.700;2022-07-29T05:26:04;5.50;;;1.90;;
17151;SDS011;8691;50.828;4.700;2022-07-29T05:28:34;3.07;;;2.60;;
17151;SDS011;8691;50.828;4.700;2022-07-29T05:31:00;4.57;;;2.30;;
17151;SDS011;8691;50.828;4.700;2022-07-29T05:33:27;3.67;;;2.33;;
17151;SDS011;8691;50.828;4.700;2022-07-29T05:35:54;3.77;;;2.10;;
17151;SDS011;8691;50.828;4.700;2022-07-29T05:38:21;4.57;;;2.50;;
17151;SDS011;8691;50.828;4.700;2022-07-29T05:40:48;3.87;;;2.57;;
17151;SDS011;8691;50.828;4.700;2022-07-29T05:43:14;5.97;;;2.30;;
17151;SDS011;8691;50.828;4.700;2022-07-29T05:45:41;5.63;;;2.00;;
17151;SDS011;8691;50.828;4.700;2022-07-29T05:48:07;8.77;;;3.10;;
17151;SDS011;8691;50.828;4.700;2022-07-29T05:50:35;4.43;;;2.15;;
17151;SDS011;8691;50.828;4.700;2022-07-29T05:53:02;2.67;;;1.70;;
17151;SDS011;8691;50.828;4.700;2022-07-29T05:55:29;3.10;;;2.10;;
17151;SDS011;8691;50.828;4.700;2022-07-29T05:57:56;3.13;;;2.20;;
17151;SDS011;8691;50.828;4.700;2022-07-29T06:00:23;3.03;;;2.07;;
17151;SDS011;8691;50.828;4.700;2022-07-29T06:02:50;3.57;;;2.07;;
17151;SDS011;8691;50.828;4.700;2022-07-29T06:05:17;4.80;;;2.20;;
17151;SDS011;8691;50.828;4.700;2022-07-29T06:07:44;3.35;;;2.17;;
17151;SDS011;8691;50.828;4.700;2022-07-29T06:10:12;5.05;;;2.10;;
17151;SDS011;8691;50.828;4.700;2022-07-29T06:12:39;3.30;;;2.08;;
17151;SDS011;8691;50.828;4.700;2022-07-29T06:15:07;4.07;;;1.98;;
17151;SDS011;8691;50.828;4.700;2022-07-29T06:17:35;3.88;;;1.98;;
17151;SDS011;8691;50.828;4.700;2022-07-29T06:20:03;3.08;;;1.92;;
17151;SDS011;8691;50.828;4.700;2022-07-29T06:22:31;4.70;;;2.42;;
17151;SDS011;8691;50.828;4.700;2022-07-29T06:24:58;3.85;;;2.10;;
17151;SDS011;8691;50.828;4.700;2022-07-29T06:27:26;3.17;;;2.30;;
17151;SDS011;8691;50.828;4.700;2022-07-29T06:29:53;5.43;;;2.03;;
17151;SDS011;8691;50.828;4.700;2022-07-29T06:32:21;3.08;;;2.10;;
17151;SDS011;8691;50.828;4.700;2022-07-29T06:34:48;6.68;;;2.12;;
17151;SDS011;8691;50.828;4.700;2022-07-29T06:37:16;4.25;;;2.30;;
17151;SDS011;8691;50.828;4.700;2022-07-29T06:39:43;3.38;;;1.83;;
17151;SDS011;8691;50.828;4.700;2022-07-29T06:42:11;3.42;;;2.20;;
17151;SDS011;8691;50.828;4.700;2022-07-29T06:44:38;5.40;;;2.20;;
17151;SDS011;8691;50.828;4.700;2022-07-29T06:47:05;3.60;;;2.10;;
17151;SDS011;8691;50.828;4.700;2022-07-29T06:49:32;4.28;;;2.10;;
17151;SDS011;8691;50.828;4.700;2022-07-29T06:51:59;4.80;;;2.20;;
17151;SDS011;8691;50.828;4.700;2022-07-29T06:54:26;7.22;;;2.08;;
17151;SDS011;8691;50.828;4.700;2022-07-29T06:56:53;6.25;;;2.15;;
17151;SDS011;8691;50.828;4.700;2022-07-29T06:59:20;4.57;;;2.23;;
17151;SDS011;8691;50.828;4.700;2022-07-29T07:01:47;3.65;;;2.10;;
17151;SDS011;8691;50.828;4.700;2022-07-29T07:04:15;6.12;;;2.30;;
17151;SDS011;8691;50.828;4.700;2022-07-29T07:06:43;2.88;;;1.95;;
17151;SDS011;8691;50.828;4.700;2022-07-29T07:09:10;6.28;;;2.17;;
17151;SDS011;8691;50.828;4.700;2022-07-29T07:11:37;5.40;;;2.15;;
17151;SDS011;8691;50.828;4.700;2022-07-29T07:14:04;2.50;;;1.70;;
17151;SDS011;8691;50.828;4.700;2022-07-29T07:23:42;3.20;;;2.12;;
17151;SDS011;8691;50.828;4.700;2022-07-29T07:26:09;4.28;;;2.10;;
17151;SDS011;8691;50.828;4.700;2022-07-29T07:28:36;3.35;;;1.95;;
17151;SDS011;8691;50.828;4.700;2022-07-29T07:31:04;3.85;;;1.88;;
17151;SDS011;8691;50.828;4.700;2022-07-29T07:33:31;2.90;;;1.93;;
17151;SDS011;8691;50.828;4.700;2022-07-29T07:35:58;3.15;;;1.92;;
17151;SDS011;8691;50.828;4.700;2022-07-29T07:38:26;4.60;;;2.40;;
17151;SDS011;8691;50.828;4.700;2022-07-29T07:40:53;2.10;;;1.80;;
17151;SDS011;8691;50.828;4.700;2022-07-29T07:43:20;3.12;;;2.00;;
17151;SDS011;8691;50.828;4.700;2022-07-29T07:45:47;4.88;;;2.00;;
17151;SDS011;8691;50.828;4.700;2022-07-29T07:48:15;3.25;;;1.88;;
17151;SDS011;8691;50.828;4.700;2022-07-29T07:50:41;4.17;;;2.00;;
17151;SDS011;8691;50.828;4.700;2022-07-29T07:53:09;4.25;;;2.03;;
17151;SDS011;8691;50.828;4.700;2022-07-29T07:55:39;3.67;;;1.97;;
17151;SDS011;8691;50.828;4.700;2022-07-29T07:58:09;3.20;;;2.07;;
17151;SDS011;8691;50.828;4.700;2022-07-29T08:00:36;3.50;;;2.00;;
17151;SDS011;8691;50.828;4.700;2022-07-29T08:03:04;4.93;;;2.12;;
17151;SDS011;8691;50.828;4.700;2022-07-29T08:05:31;3.25;;;2.10;;
17151;SDS011;8691;50.828;4.700;2022-07-29T08:07:59;5.03;;;1.92;;
17151;SDS011;8691;50.828;4.700;2022-07-29T08:10:25;2.70;;;1.90;;
17151;SDS011;8691;50.828;4.700;2022-07-29T08:13:11;4.50;;;2.10;;
17151;SDS011;8691;50.828;4.700;2022-07-29T08:15:39;2.12;;;1.90;;
17151;SDS011;8691;50.828;4.700;2022-07-29T08:18:06;3.15;;;2.17;;
17151;SDS011;8691;50.828;4.700;2022-07-29T08:20:35;3.75;;;1.80;;
17151;SDS011;8691;50.828;4.700;2022-07-29T08:23:04;3.70;;;2.10;;
17151;SDS011;8691;50.828;4.700;2022-07-29T08:25:31;5.95;;;1.88;;
17151;SDS011;8691;50.828;4.700;2022-07-29T08:27:58;3.53;;;2.10;;
17151;SDS011;8691;50.828;4.700;2022-07-29T08:30:25;4.80;;;2.03;;
17151;SDS011;8691;50.828;4.700;2022-07-29T08:32:52;6.10;;;1.88;;
17151;SDS011;8691;50.828;4.700;2022-07-29T08:35:20;4.93;;;1.97;;
17151;SDS011;8691;50.828;4.700;2022-07-29T08:37:47;3.17;;;1.77;;
17151;SDS011;8691;50.828;4.700;2022-07-29T08:40:14;6.53;;;2.30;;
17151;SDS011;8691;50.828;4.700;2022-07-29T08:42:42;4.43;;;1.80;;
17151;SDS011;8691;50.828;4.700;2022-07-29T08:45:09;5.70;;;1.90;;
17151;SDS011;8691;50.828;4.700;2022-07-29T08:47:40;2.22;;;1.60;;
17151;SDS011;8691;50.828;4.700;2022-07-29T08:50:08;4.50;;;1.90;;
17151;SDS011;8691;50.828;4.700;2022-07-29T08:52:38;3.17;;;1.50;;
17151;SDS011;8691;50.828;4.700;2022-07-29T08:55:07;4.55;;;1.73;;
17151;SDS011;8691;50.828;4.700;2022-07-29T08:57:34;5.12;;;1.80;;
17151;SDS011;8691;50.828;4.700;2022-07-29T09:00:01;4.70;;;1.90;;
17151;SDS011;8691;50.828;4.700;2022-07-29T09:02:28;3.62;;;1.50;;
17151;SDS011;8691;50.828;4.700;2022-07-29T09:04:55;2.40;;;1.50;;
17151;SDS011;8691;50.828;4.700;2022-07-29T09:07:21;3.13;;;1.50;;
17151;SDS011;8691;50.828;4.700;2022-07-29T09:09:49;3.50;;;1.45;;
17151;SDS011;8691;50.828;4.700;2022-07-29T09:12:17;3.10;;;1.35;;
17151;SDS011;8691;50.828;4.700;2022-07-29T09:14:45;3.08;;;1.23;;
17151;SDS011;8691;50.828;4.700;2022-07-29T09:17:11;3.88;;;1.73;;
17151;SDS011;8691;50.828;4.700;2022-07-29T09:19:39;4.18;;;1.40;;
17151;SDS011;8691;50.828;4.700;2022-07-29T09:22:06;2.72;;;1.30;;
17151;SDS011;8691;50.828;4.700;2022-07-29T09:24:37;2.63;;;1.37;;
17151;SDS011;8691;50.828;4.700;2022-07-29T09:27:11;3.17;;;1.20;;
17151;SDS011;8691;50.828;4.700;2022-07-29T09:29:36;3.08;;;1.55;;
17151;SDS011;8691;50.828;4.700;2022-07-29T09:32:06;6.10;;;1.33;;
17151;SDS011;8691;50.828;4.700;2022-07-29T09:34:32;2.50;;;1.20;;
17151;SDS011;8691;50.828;4.700;2022-07-29T09:37:00;2.83;;;1.10;;
17151;SDS011;8691;50.828;4.700;2022-07-29T09:41:56;2.05;;;1.23;;
17151;SDS011;8691;50.828;4.700;2022-07-29T09:44:22;2.17;;;1.10;;
17151;SDS011;8691;50.828;4.700;2022-07-29T09:47:04;2.60;;;1.00;;
17151;SDS011;8691;50.828;4.700;2022-07-29T09:49:34;3.80;;;1.10;;
17151;SDS011;8691;50.828;4.700;2022-07-29T09:52:01;2.80;;;1.20;;
17151;SDS011;8691;50.828;4.700;2022-07-29T09:54:27;2.60;;;1.23;;
17151;SDS011;8691;50.828;4.700;2022-07-29T09:56:55;1.65;;;1.00;;
17151;SDS011;8691;50.828;4.700;2022-07-29T09:59:22;3.40;;;1.40;;
17151;SDS011;8691;50.828;4.700;2022-07-29T10:01:49;2.17;;;1.17;;
17151;SDS011;8691;50.828;4.700;2022-07-29T10:04:16;1.90;;;1.23;;
17151;SDS011;8691;50.828;4.700;2022-07-29T10:06:56;2.80;;;1.17;;
17151;SDS011;8691;50.828;4.700;2022-07-29T10:09:23;3.20;;;1.00;;
17151;SDS011;8691;50.828;4.700;2022-07-29T10:12:09;2.70;;;1.20;;
17151;SDS011;8691;50.828;4.700;2022-07-29T10:14:35;3.33;;;1.10;;
17151;SDS011;8691;50.828;4.700;2022-07-29T10:17:02;2.88;;;1.10;;
17151;SDS011;8691;50.828;4.700;2022-07-29T10:19:29;2.07;;;1.10;;
17151;SDS011;8691;50.828;4.700;2022-07-29T10:21:57;2.95;;;1.12;;
17151;SDS011;8691;50.828;4.700;2022-07-29T10:24:27;2.75;;;1.05;;
17151;SDS011;8691;50.828;4.700;2022-07-29T10:26:55;1.60;;;1.00;;
17151;SDS011;8691;50.828;4.700;2022-07-29T10:29:21;2.00;;;1.10;;
17151;SDS011;8691;50.828;4.700;2022-07-29T10:42:58;2.57;;;1.30;;
17151;SDS011;8691;50.828;4.700;2022-07-29T10:45:25;2.45;;;1.23;;
17151;SDS011;8691;50.828;4.700;2022-07-29T10:48:04;2.60;;;1.17;;
17151;SDS011;8691;50.828;4.700;2022-07-29T10:53:23;2.08;;;1.20;;
17151;SDS011;8691;50.828;4.700;2022-07-29T10:55:50;2.67;;;1.20;;
17151;SDS011;8691;50.828;4.700;2022-07-29T10:58:20;2.78;;;1.10;;
17151;SDS011;8691;50.828;4.700;2022-07-29T11:00:47;3.27;;;1.10;;
17151;SDS011;8691;50.828;4.700;2022-07-29T11:06:08;1.67;;;1.12;;
17151;SDS011;8691;50.828;4.700;2022-07-29T11:08:35;2.03;;;1.40;;
17151;SDS011;8691;50.828;4.700;2022-07-29T11:13:51;1.80;;;1.10;;
17151;SDS011;8691;50.828;4.700;2022-07-29T11:16:18;1.85;;;1.30;;
17151;SDS011;8691;50.828;4.700;2022-07-29T11:21:39;2.25;;;1.40;;
17151;SDS011;8691;50.828;4.700;2022-07-29T11:26:45;5.80;;;1.45;;
17151;SDS011;8691;50.828;4.700;2022-07-29T11:29:21;3.37;;;1.60;;
17151;SDS011;8691;50.828;4.700;2022-07-29T11:31:51;3.28;;;1.50;;
17151;SDS011;8691;50.828;4.700;2022-07-29T11:34:19;3.67;;;1.52;;
17151;SDS011;8691;50.828;4.700;2022-07-29T11:39:30;2.58;;;1.50;;
17151;SDS011;8691;50.828;4.700;2022-07-29T11:47:35;3.40;;;1.40;;
17151;SDS011;8691;50.828;4.700;2022-07-29T11:50:06;4.75;;;1.80;;
17151;SDS011;8691;50.828;4.700;2022-07-29T11:52:34;2.38;;;1.45;;
17151;SDS011;8691;50.828;4.700;2022-07-29T11:55:01;2.20;;;1.50;;
17151;SDS011;8691;50.828;4.700;2022-07-29T11:57:27;2.47;;;1.80;;
17151;SDS011;8691;50.828;4.700;2022-07-29T11:59:54;2.83;;;1.50;;
17151;SDS011;8691;50.828;4.700;2022-07-29T12:02:21;4.00;;;1.58;;
17151;SDS011;8691;50.828;4.700;2022-07-29T12:04:51;2.47;;;1.50;;
17151;SDS011;8691;50.828;4.700;2022-07-29T12:07:18;3.33;;;1.70;;
17151;SDS011;8691;50.828;4.700;2022-07-29T12:09:51;2.40;;;1.50;;
17151;SDS011;8691;50.828;4.700;2022-07-29T12:12:18;3.65;;;1.60;;
17151;SDS011;8691;50.828;4.700;2022-07-29T12:14:45;4.00;;;1.67;;
17151;SDS011;8691;50.828;4.700;2022-07-29T12:17:28;3.58;;;1.50;;
17151;SDS011;8691;50.828;4.700;2022-07-29T12:19:55;3.57;;;1.70;;
17151;SDS011;8691;50.828;4.700;2022-07-29T12:22:25;2.70;;;1.50;;
17151;SDS011;8691;50.828;4.700;2022-07-29T12:24:54;2.83;;;1.25;;
17151;SDS011;8691;50.828;4.700;2022-07-29T12:27:21;3.03;;;1.33;;
17151;SDS011;8691;50.828;4.700;2022-07-29T12:29:57;3.10;;;1.53;;
17151;SDS011;8691;50.828;4.700;2022-07-29T12:32:23;2.60;;;1.30;;
17151;SDS011;8691;50.828;4.700;2022-07-29T12:34:50;3.53;;;1.35;;
17151;SDS011;8691;50.828;4.700;2022-07-29T12:37:18;3.42;;;1.77;;
17151;SDS011;8691;50.828;4.700;2022-07-29T12:39:45;3.38;;;1.38;;
17151;SDS011;8691;50.828;4.700;2022-07-29T12:42:12;4.10;;;1.70;;
17151;SDS011;8691;50.828;4.700;2022-07-29T12:44:43;4.47;;;1.60;;
17151;SDS011;8691;50.828;4.700;2022-07-29T12:47:09;3.20;;;1.12;;
17151;SDS011;8691;50.828;4.700;2022-07-29T12:49:36;3.60;;;1.40;;
17151;SDS011;8691;50.828;4.700;2022-07-29T12:54:52;2.70;;;1.47;;
17151;SDS011;8691;50.828;4.700;2022-07-29T12:57:19;2.55;;;1.60;;
17151;SDS011;8691;50.828;4.700;2022-07-29T12:59:59;3.70;;;1.40;;
17151;SDS011;8691;50.828;4.700;2022-07-29T13:02:35;2.97;;;1.50;;
17151;SDS011;8691;50.828;4.700;2022-07-29T13:05:02;2.97;;;1.33;;
17151;SDS011;8691;50.828;4.700;2022-07-29T13:07:30;3.20;;;1.30;;
17151;SDS011;8691;50.828;4.700;2022-07-29T13:10:35;2.60;;;1.50;;
17151;SDS011;8691;50.828;4.700;2022-07-29T13:15:40;3.83;;;1.50;;
17151;SDS011;8691;50.828;4.700;2022-07-29T13:18:25;3.78;;;1.52;;
17151;SDS011;8691;50.828;4.700;2022-07-29T13:20:34;3.80;;;1.50;;
17151;SDS011;8691;50.828;4.700;2022-07-29T13:23:01;4.72;;;1.80;;
17151;SDS011;8691;50.828;4.700;2022-07-29T13:25:29;2.10;;;1.08;;
17151;SDS011;8691;50.828;4.700;2022-07-29T13:27:56;2.47;;;1.40;;
17151;SDS011;8691;50.828;4.700;2022-07-29T13:30:23;2.45;;;1.38;;
17151;SDS011;8691;50.828;4.700;2022-07-29T13:32:50;3.50;;;1.47;;
17151;SDS011;8691;50.828;4.700;2022-07-29T13:35:16;3.12;;;1.20;;
17151;SDS011;8691;50.828;4.700;2022-07-29T13:37:44;3.17;;;1.42;;
17151;SDS011;8691;50.828;4.700;2022-07-29T13:40:11;5.50;;;1.40;;
17151;SDS011;8691;50.828;4.700;2022-07-29T13:42:38;3.20;;;1.40;;
17151;SDS011;8691;50.828;4.700;2022-07-29T13:45:05;4.18;;;1.60;;
17151;SDS011;8691;50.828;4.700;2022-07-29T13:47:32;5.47;;;1.50;;
17151;SDS011;8691;50.828;4.700;2022-07-29T13:50:00;3.97;;;1.60;;
17151;SDS011;8691;50.828;4.700;2022-07-29T13:52:27;3.20;;;1.40;;
17151;SDS011;8691;50.828;4.700;2022-07-29T13:54:54;4.05;;;1.42;;
17151;SDS011;8691;50.828;4.700;2022-07-29T13:57:21;4.20;;;1.60;;
17151;SDS011;8691;50.828;4.700;2022-07-29T13:59:48;3.75;;;1.65;;
17151;SDS011;8691;50.828;4.700;2022-07-29T14:02:16;3.47;;;1.70;;
17151;SDS011;8691;50.828;4.700;2022-07-29T14:04:43;4.63;;;1.63;;
17151;SDS011;8691;50.828;4.700;2022-07-29T14:07:10;3.33;;;1.60;;
17151;SDS011;8691;50.828;4.700;2022-07-29T14:09:37;3.80;;;1.60;;
17151;SDS011;8691;50.828;4.700;2022-07-29T14:12:04;3.85;;;1.50;;
17151;SDS011;8691;50.828;4.700;2022-07-29T14:14:32;2.75;;;1.60;;
17151;SDS011;8691;50.828;4.700;2022-07-29T14:16:59;3.00;;;1.50;;
17151;SDS011;8691;50.828;4.700;2022-07-29T14:19:26;2.95;;;1.40;;
17151;SDS011;8691;50.828;4.700;2022-07-29T14:21:53;3.93;;;1.80;;
17151;SDS011;8691;50.828;4.700;2022-07-29T14:24:20;3.53;;;1.67;;
17151;SDS011;8691;50.828;4.700;2022-07-29T14:26:47;3.92;;;1.92;;
17151;SDS011;8691;50.828;4.700;2022-07-29T14:29:14;6.40;;;2.00;;
17151;SDS011;8691;50.828;4.700;2022-07-29T14:31:41;3.30;;;2.10;;
17151;SDS011;8691;50.828;4.700;2022-07-29T14:34:08;5.28;;;2.22;;
17151;SDS011;8691;50.828;4.700;2022-07-29T14:36:35;2.90;;;1.60;;
17151;SDS011;8691;50.828;4.700;2022-07-29T14:39:03;3.70;;;1.70;;
17151;SDS011;8691;50.828;4.700;2022-07-29T14:41:30;4.28;;;1.80;;
17151;SDS011;8691;50.828;4.700;2022-07-29T14:43:59;6.57;;;1.98;;
17151;SDS011;8691;50.828;4.700;2022-07-29T14:46:28;3.95;;;1.90;;
17151;SDS011;8691;50.828;4.700;2022-07-29T14:48:55;4.70;;;2.20;;
17151;SDS011;8691;50.828;4.700;2022-07-29T14:51:22;4.57;;;2.30;;
17151;SDS011;8691;50.828;4.700;2022-07-29T14:53:49;4.53;;;1.97;;
17151;SDS011;8691;50.828;4.700;2022-07-29T14:56:16;5.38;;;2.20;;
17151;SDS011;8691;50.828;4.700;2022-07-29T14:58:43;4.22;;;2.12;;
17151;SDS011;8691;50.828;4.700;2022-07-29T15:01:11;5.47;;;2.22;;
17151;SDS011;8691;50.828;4.700;2022-07-29T15:03:38;4.07;;;2.00;;
17151;SDS011;8691;50.828;4.700;2022-07-29T15:06:06;5.90;;;2.25;;
17151;SDS011;8691;50.828;4.700;2022-07-29T15:08:33;4.43;;;2.20;;
17151;SDS011;8691;50.828;4.700;2022-07-29T15:11:00;2.92;;;2.00;;
17151;SDS011;8691;50.828;4.700;2022-07-29T15:13:27;2.72;;;1.70;;
17151;SDS011;8691;50.828;4.700;2022-07-29T15:15:54;5.03;;;1.97;;
17151;SDS011;8691;50.828;4.700;2022-07-29T15:18:21;4.03;;;2.00;;
17151;SDS011;8691;50.828;4.700;2022-07-29T15:20:49;5.62;;;1.88;;
17151;SDS011;8691;50.828;4.700;2022-07-29T15:23:16;3.65;;;1.80;;
17151;SDS011;8691;50.828;4.700;2022-07-29T15:25:44;3.90;;;1.95;;
17151;SDS011;8691;50.828;4.700;2022-07-29T15:28:11;5.70;;;2.00;;
17151;SDS011;8691;50.828;4.700;2022-07-29T15:30:39;3.42;;;2.03;;
17151;SDS011;8691;50.828;4.700;2022-07-29T15:33:07;3.90;;;1.77;;
17151;SDS011;8691;50.828;4.700;2022-07-29T15:35:34;5.32;;;1.88;;
17151;SDS011;8691;50.828;4.700;2022-07-29T15:38:01;2.28;;;1.40;;
17151;SDS011;8691;50.828;4.700;2022-07-29T15:40:28;2.95;;;1.85;;
17151;SDS011;8691;50.828;4.700;2022-07-29T15:42:55;3.00;;;1.60;;
17151;SDS011;8691;50.828;4.700;2022-07-29T15:45:22;4.75;;;1.40;;
17151;SDS011;8691;50.828;4.700;2022-07-29T15:47:50;5.70;;;1.60;;
17151;SDS011;8691;50.828;4.700;2022-07-29T15:50:17;3.65;;;1.48;;
17151;SDS011;8691;50.828;4.700;2022-07-29T15:52:45;3.45;;;1.50;;
17151;SDS011;8691;50.828;4.700;2022-07-29T15:55:12;4.03;;;1.52;;
17151;SDS011;8691;50.828;4.700;2022-07-29T15:57:40;4.10;;;1.58;;
17151;SDS011;8691;50.828;4.700;2022-07-29T16:00:07;5.53;;;1.60;;
17151;SDS011;8691;50.828;4.700;2022-07-29T16:02:34;3.80;;;1.70;;
17151;SDS011;8691;50.828;4.700;2022-07-29T16:05:01;4.23;;;1.70;;
17151;SDS011;8691;50.828;4.700;2022-07-29T16:07:28;3.12;;;1.40;;